Accueil
METAR-TAF:

METAR-TAF

Aéroports :

Aéroport de Tenerife-Sud

Ténérife Sud, Espagne

latitude: 28-03N, longitude: 016-34W, altitude: 64 m

Observation

Le bulletin a été fait il y a 32 minutes, à 17:30 UTC
Vent 13 kt de est
Température 20°C
Humidité 46%
Pression 1022 hPa
Visibilité 10 km ou plus
Quelques nuages à une hauteur de 4000 ft

METAR: GCTS 021730Z 10013KT 9999 FEW040 20/08 Q1022 NOSIG

Heure: 18:02 (18:02 UTC)

Prévision

Le bulletin a été fait il y a 4 heures et 2 minutes, à 14:00 UTC
Prévision valable du 02 à 15 UTC au 03 à 15 UTC
Vent 12 kt de est
Visibilité 10 km ou plus
Quelques nuages à une hauteur de 4000 ft
Probabilité 40% :
Temporairement
du 02 à 18 UTC au 03 à 03 UTC
Vent 7 kt de nord

TAF: GCTS 021400Z 0215/0315 08012KT 9999 FEW040 TX22/0314Z TN13/0306Z PROB40 TEMPO 0218/0303 01007KT

Observations et prévisions météorologiques de plus de 4000 aéroports (messages METAR et TAF).

Les stations disponibles sont représentées par des disques jaunes et rouges sur la carte.

Passer la souris dessus pour voir le nom de la station.

Cliquer dessus pour voir les observations et prévisions météorologiques.

Pour changer de carte: cliquez sur les boutons verts avec une croix noire pour zoomer, sur le bouton vert avec un tiret pour effectuer un zoom arrière, ou sur les flèches vertes pour les cartes adjacentes.


METAR-TAF: